createdAt,value
2018-01-12T00:00:16.742Z,4.62
2018-01-12T00:00:57.302Z,4.67
2018-01-12T00:01:37.921Z,4.62
2018-01-12T00:02:18.493Z,4.67
2018-01-12T00:02:59.062Z,4.66
2018-01-12T00:03:39.640Z,4.63
2018-01-12T00:04:20.213Z,4.68
2018-01-12T00:05:00.778Z,4.67
2018-01-12T00:05:41.340Z,4.68
2018-01-12T00:06:21.929Z,4.67
2018-01-12T00:07:02.505Z,4.67
2018-01-12T00:07:43.084Z,4.6
2018-01-12T00:08:23.651Z,4.67
2018-01-12T00:09:04.209Z,4.53
2018-01-12T00:09:44.777Z,4.52
2018-01-12T00:10:25.339Z,4.5
2018-01-12T00:11:05.902Z,4.52
2018-01-12T00:11:46.483Z,4.53
2018-01-12T00:12:27.062Z,4.53
2018-01-12T00:13:07.644Z,4.49
2018-01-12T00:13:48.245Z,4.56
2018-01-12T00:14:28.818Z,4.56
2018-01-12T00:15:09.382Z,4.52
2018-01-12T00:15:49.947Z,4.52
2018-01-12T00:16:30.503Z,4.53
2018-01-12T00:17:11.078Z,4.52
2018-01-12T00:17:51.666Z,4.52
2018-01-12T00:18:32.258Z,4.53
2018-01-12T00:19:12.837Z,4.52
2018-01-12T00:19:53.412Z,4.5
2018-01-12T00:20:33.984Z,4.56
2018-01-12T00:21:14.556Z,4.49
2018-01-12T00:21:55.137Z,4.53
2018-01-12T00:22:35.708Z,4.5
2018-01-12T00:23:16.263Z,4.55
2018-01-12T00:23:56.829Z,4.53
2018-01-12T00:24:37.411Z,4.45
2018-01-12T00:25:18.005Z,4.42
2018-01-12T00:25:58.565Z,4.52
2018-01-12T00:26:39.135Z,4.45
2018-01-12T00:27:19.713Z,4.5
2018-01-12T00:28:00.295Z,4.48
2018-01-12T00:28:40.860Z,4.45
2018-01-12T00:29:21.425Z,4.53
2018-01-12T00:30:02.008Z,4.48
2018-01-12T00:30:42.560Z,4.5
2018-01-12T00:31:23.138Z,4.5
2018-01-12T00:32:03.717Z,4.5
2018-01-12T00:32:44.289Z,4.42
2018-01-12T00:33:24.867Z,4.52
2018-01-12T00:34:05.456Z,4.55
2018-01-12T00:34:46.021Z,4.53
2018-01-12T00:35:26.610Z,4.53
2018-01-12T00:36:07.182Z,4.45
2018-01-12T00:36:47.761Z,4.44
2018-01-12T00:37:28.359Z,4.48
2018-01-12T00:38:08.920Z,4.49
2018-01-12T00:38:49.489Z,4.45
2018-01-12T00:39:30.091Z,4.42
2018-01-12T00:40:10.653Z,4.41
2018-01-12T00:40:51.229Z,4.42
2018-01-12T00:41:31.791Z,4.45
2018-01-12T00:42:12.353Z,4.48
2018-01-12T00:42:52.935Z,4.31
2018-01-12T00:43:33.518Z,4.42
2018-01-12T00:44:14.088Z,4.41
2018-01-12T00:44:54.654Z,4.41
2018-01-12T00:45:35.224Z,4.41
2018-01-12T00:46:15.799Z,4.42
2018-01-12T00:46:56.471Z,4.42
2018-01-12T00:47:37.030Z,4.49
2018-01-12T00:48:17.593Z,4.48
2018-01-12T00:48:58.216Z,4.48
2018-01-12T00:49:38.798Z,4.48
2018-01-12T00:50:19.392Z,4.4
2018-01-12T00:50:59.940Z,4.45
2018-01-12T00:51:40.524Z,4.4
2018-01-12T00:52:21.096Z,4.45
2018-01-12T00:53:01.652Z,4.37
2018-01-12T00:53:42.235Z,4.38
2018-01-12T00:54:22.807Z,4.42
2018-01-12T00:55:03.385Z,4.44
2018-01-12T00:55:43.951Z,4.45
2018-01-12T00:56:24.533Z,4.44
2018-01-12T00:57:05.103Z,4.44
2018-01-12T00:57:45.660Z,4.41
2018-01-12T00:58:26.251Z,4.4
2018-01-12T00:59:06.829Z,4.38
2018-01-12T00:59:47.386Z,4.38
2018-01-12T01:00:27.946Z,4.38
2018-01-12T01:01:08.551Z,4.5
2018-01-12T01:01:49.121Z,4.45
2018-01-12T01:02:29.704Z,4.5
2018-01-12T01:03:10.269Z,4.4
2018-01-12T01:03:50.907Z,4.42
2018-01-12T01:04:31.474Z,4.4
2018-01-12T01:05:12.042Z,4.41
2018-01-12T01:05:52.599Z,4.37
2018-01-12T01:06:33.165Z,4.34
2018-01-12T01:07:13.726Z,4.49
2018-01-12T01:07:54.289Z,4.42
2018-01-12T01:08:34.856Z,4.49
2018-01-12T01:09:15.426Z,4.4
2018-01-12T01:09:56.003Z,4.4
2018-01-12T01:10:36.590Z,4.45
2018-01-12T01:11:17.173Z,4.42
2018-01-12T01:11:57.740Z,4.4
2018-01-12T01:12:38.320Z,4.38
2018-01-12T01:13:18.903Z,4.38
2018-01-12T01:13:59.471Z,4.24
2018-01-12T01:14:40.032Z,4.3
2018-01-12T01:15:20.597Z,4.32
2018-01-12T01:16:01.144Z,4.32
2018-01-12T01:16:41.734Z,4.35
2018-01-12T01:17:22.293Z,4.35
2018-01-12T01:18:03.571Z,4.22
2018-01-12T01:18:44.138Z,4.35
2018-01-12T01:19:24.728Z,4.24
2018-01-12T01:20:05.296Z,4.2
2018-01-12T01:20:45.955Z,4.22
2018-01-12T01:21:26.528Z,4.3
2018-01-12T01:22:07.094Z,4.23
2018-01-12T01:22:47.658Z,4.26
2018-01-12T01:23:28.243Z,4.24
2018-01-12T01:24:08.807Z,4.2
2018-01-12T01:24:49.362Z,4.24
2018-01-12T01:25:29.947Z,4.26
2018-01-12T01:26:10.545Z,4.24
2018-01-12T01:26:51.104Z,4.22
2018-01-12T01:27:31.679Z,4.19
2018-01-12T01:28:12.235Z,4.19
2018-01-12T01:28:52.815Z,4.26
2018-01-12T01:29:33.402Z,4.19
2018-01-12T01:30:13.979Z,4.22
2018-01-12T01:30:54.574Z,4.2
2018-01-12T01:31:35.112Z,4.22
2018-01-12T01:32:15.669Z,4.17
2018-01-12T01:32:56.225Z,4.19
2018-01-12T01:33:36.785Z,4.19
2018-01-12T01:34:17.359Z,4.23
2018-01-12T01:34:57.964Z,4.26
2018-01-12T01:35:38.555Z,4.22
2018-01-12T01:36:19.177Z,4.28
2018-01-12T01:36:59.756Z,4.23
2018-01-12T01:37:40.344Z,4.23
2018-01-12T01:38:20.905Z,4.24
2018-01-12T01:39:01.469Z,4.26
2018-01-12T01:39:42.032Z,4.22
2018-01-12T01:40:22.625Z,4.22
2018-01-12T01:41:03.182Z,4.28
2018-01-12T01:41:43.748Z,4.35
2018-01-12T01:42:24.337Z,4.35
2018-01-12T01:43:04.960Z,4.37
2018-01-12T01:43:45.557Z,4.35
2018-01-12T01:44:26.092Z,4.38
2018-01-12T01:45:06.660Z,4.45
2018-01-12T01:45:47.230Z,4.44
2018-01-12T01:46:27.821Z,4.34
2018-01-12T01:47:08.434Z,4.31
2018-01-12T01:47:48.997Z,4.32
2018-01-12T01:48:29.563Z,4.37
2018-01-12T01:49:10.123Z,4.38
2018-01-12T01:49:50.701Z,4.45
2018-01-12T01:50:31.276Z,4.4
2018-01-12T01:51:11.871Z,4.4
2018-01-12T01:51:52.451Z,4.41
2018-01-12T01:52:33.023Z,4.4
2018-01-12T01:53:13.599Z,4.5
2018-01-12T01:53:54.165Z,4.41
2018-01-12T01:54:34.782Z,4.5
2018-01-12T01:55:15.360Z,4.49
2018-01-12T01:55:55.913Z,4.45
2018-01-12T01:56:36.465Z,4.4
2018-01-12T01:57:17.036Z,4.41
2018-01-12T01:57:57.613Z,4.4
2018-01-12T01:58:38.164Z,4.56
2018-01-12T01:59:19.366Z,4.44
2018-01-12T01:59:59.928Z,4.48
2018-01-12T02:00:40.483Z,4.48
2018-01-12T02:01:21.035Z,4.48
2018-01-12T02:02:01.600Z,4.41
2018-01-12T02:02:42.175Z,4.42
2018-01-12T02:03:22.725Z,4.45
2018-01-12T02:04:03.304Z,4.42
2018-01-12T02:04:43.872Z,4.45
2018-01-12T02:05:24.454Z,4.49
2018-01-12T02:06:05.023Z,4.42
2018-01-12T02:06:45.588Z,4.48
2018-01-12T02:07:26.143Z,4.56
2018-01-12T02:08:06.725Z,4.5
2018-01-12T02:08:47.301Z,4.44
2018-01-12T02:09:27.867Z,4.49
2018-01-12T02:10:08.477Z,4.49
2018-01-12T02:10:49.055Z,4.5
2018-01-12T02:11:29.611Z,4.53
2018-01-12T02:12:10.208Z,4.53
2018-01-12T02:12:50.787Z,4.52
2018-01-12T02:13:31.358Z,4.56
2018-01-12T02:14:11.949Z,4.49
2018-01-12T02:14:52.521Z,4.55
2018-01-12T02:15:33.092Z,4.49
2018-01-12T02:16:13.660Z,4.49
2018-01-12T02:16:54.213Z,4.52
2018-01-12T02:17:34.796Z,4.5
2018-01-12T02:18:15.376Z,4.5
2018-01-12T02:18:55.937Z,4.55
2018-01-12T02:19:36.521Z,4.55
2018-01-12T02:20:17.110Z,4.49
2018-01-12T02:20:57.669Z,4.59
2018-01-12T02:21:38.236Z,4.53
2018-01-12T02:22:18.799Z,4.45
2018-01-12T02:22:59.383Z,4.52
2018-01-12T02:23:39.953Z,4.44
2018-01-12T02:24:20.533Z,4.42
2018-01-12T02:25:01.120Z,4.5
2018-01-12T02:25:41.689Z,4.49
2018-01-12T02:26:22.271Z,4.53
2018-01-12T02:27:02.847Z,4.55
2018-01-12T02:27:43.416Z,4.59
2018-01-12T02:28:23.980Z,4.45
2018-01-12T02:29:04.555Z,4.52
2018-01-12T02:29:45.110Z,4.45
2018-01-12T02:30:25.677Z,4.5
2018-01-12T02:31:06.243Z,4.45
2018-01-12T02:31:46.813Z,4.45
2018-01-12T02:32:27.362Z,4.41
2018-01-12T02:33:07.951Z,4.41
2018-01-12T02:33:48.509Z,4.45
2018-01-12T02:34:29.073Z,4.48
2018-01-12T02:35:09.654Z,4.44
2018-01-12T02:35:50.244Z,4.37
2018-01-12T02:36:30.798Z,4.48
2018-01-12T02:37:11.362Z,4.48
2018-01-12T02:37:51.919Z,4.5
2018-01-12T02:38:32.488Z,4.48
2018-01-12T02:39:13.046Z,4.49
2018-01-12T02:39:53.612Z,4.38
2018-01-12T02:40:34.177Z,4.48
2018-01-12T02:41:14.787Z,4.4
2018-01-12T02:41:55.347Z,4.38
2018-01-12T02:42:35.920Z,4.48
2018-01-12T02:43:16.489Z,4.41
2018-01-12T02:43:57.049Z,4.44
2018-01-12T02:44:37.621Z,4.45
2018-01-12T02:45:18.194Z,4.4
2018-01-12T02:45:58.765Z,4.34
2018-01-12T02:46:39.320Z,4.38
2018-01-12T02:47:19.889Z,4.4
2018-01-12T02:48:00.461Z,4.35
2018-01-12T02:48:41.035Z,4.22
2018-01-12T02:49:21.604Z,4.22
2018-01-12T02:50:02.165Z,4.23
2018-01-12T02:50:42.732Z,4.19
2018-01-12T02:51:23.299Z,4.26
2018-01-12T02:52:03.868Z,4.17
2018-01-12T02:52:44.440Z,4.17
2018-01-12T02:53:25.000Z,4.22
2018-01-12T02:54:05.559Z,4.2
2018-01-12T02:54:46.135Z,4.23
2018-01-12T02:55:26.705Z,4.17
2018-01-12T02:56:07.270Z,4.17
2018-01-12T02:56:47.858Z,4.24
2018-01-12T02:57:28.432Z,4.17
2018-01-12T02:58:09.001Z,4.17
2018-01-12T02:58:49.596Z,4.14
2018-01-12T02:59:30.166Z,4.2
2018-01-12T03:00:10.730Z,4.19
2018-01-12T03:00:51.299Z,4.17
2018-01-12T03:01:31.874Z,4.1
2018-01-12T03:02:12.448Z,4.13
2018-01-12T03:02:53.106Z,4.14
2018-01-12T03:03:33.658Z,4.14
2018-01-12T03:04:14.260Z,4.2
2018-01-12T03:04:54.839Z,4.16
2018-01-12T03:05:35.414Z,4.23
2018-01-12T03:06:15.977Z,4.12
2018-01-12T03:06:56.541Z,4.17
2018-01-12T03:07:37.113Z,4.12
2018-01-12T03:08:17.674Z,4.19
2018-01-12T03:08:58.239Z,4.06
2018-01-12T03:09:38.790Z,4.1
2018-01-12T03:10:19.349Z,4.05
2018-01-12T03:10:59.918Z,4.14
2018-01-12T03:11:40.481Z,4.05
2018-01-12T03:12:21.056Z,4.05
2018-01-12T03:13:01.630Z,4.13
2018-01-12T03:13:42.188Z,4.08
2018-01-12T03:14:22.756Z,4.12
2018-01-12T03:15:03.319Z,4.06
2018-01-12T03:15:43.884Z,4.04
2018-01-12T03:16:24.461Z,4.12
2018-01-12T03:17:05.020Z,3.98
2018-01-12T03:17:45.587Z,4.01
2018-01-12T03:18:26.158Z,4.06
2018-01-12T03:19:06.740Z,4.05
2018-01-12T03:19:47.305Z,4.02
2018-01-12T03:20:27.868Z,4.04
2018-01-12T03:21:08.411Z,3.98
2018-01-12T03:21:48.973Z,4.08
2018-01-12T03:22:29.539Z,4.02
2018-01-12T03:23:10.103Z,4.04
2018-01-12T03:23:50.680Z,4.04
2018-01-12T03:24:31.252Z,4.05
2018-01-12T03:25:11.818Z,3.99
2018-01-12T03:25:52.405Z,4.08
2018-01-12T03:26:32.978Z,4.04
2018-01-12T03:27:13.552Z,4.02
2018-01-12T03:27:54.157Z,4.04
2018-01-12T03:28:34.703Z,4.01
2018-01-12T03:29:15.292Z,3.96
2018-01-12T03:29:55.871Z,4.01
2018-01-12T03:30:36.430Z,4.01
2018-01-12T03:31:17.011Z,4.04
2018-01-12T03:31:57.579Z,4.12
2018-01-12T03:32:38.148Z,4.04
2018-01-12T03:33:18.715Z,4.01
2018-01-12T03:33:59.308Z,4.08
2018-01-12T03:34:39.876Z,4.02
2018-01-12T03:35:20.443Z,3.98
2018-01-12T03:36:01.004Z,4.05
2018-01-12T03:36:41.574Z,4.08
2018-01-12T03:37:22.172Z,4.05
2018-01-12T03:38:02.745Z,4.02
2018-01-12T03:38:43.315Z,4.06
2018-01-12T03:39:23.900Z,3.99
2018-01-12T03:40:04.447Z,4.02
2018-01-12T03:40:45.013Z,3.99
2018-01-12T03:41:25.576Z,4.05
2018-01-12T03:42:06.150Z,4.04
2018-01-12T03:42:46.707Z,4.04
2018-01-12T03:43:27.301Z,4.08
2018-01-12T03:44:07.867Z,4.06
2018-01-12T03:44:48.433Z,4.01
2018-01-12T03:45:28.997Z,4.08
2018-01-12T03:46:09.563Z,4.08
2018-01-12T03:46:50.167Z,4.04
2018-01-12T03:47:30.742Z,4.12
2018-01-12T03:48:11.318Z,4.08
2018-01-12T03:48:51.882Z,4.1
2018-01-12T03:49:32.455Z,4.06
2018-01-12T03:50:13.011Z,4.16
2018-01-12T03:50:53.593Z,4.1
2018-01-12T03:51:34.220Z,4.12
2018-01-12T03:52:14.780Z,4.1
2018-01-12T03:52:55.358Z,4.16
2018-01-12T03:53:35.931Z,4.1
2018-01-12T03:54:16.499Z,4.1
2018-01-12T03:54:57.056Z,4.2
2018-01-12T03:55:37.632Z,4.16
2018-01-12T03:56:18.190Z,4.17
2018-01-12T03:56:58.745Z,4.19
2018-01-12T03:57:39.318Z,4.14
2018-01-12T03:58:19.876Z,4.24
2018-01-12T03:59:00.440Z,4.26
2018-01-12T03:59:41.024Z,4.16
2018-01-12T04:00:21.607Z,4.3
2018-01-12T04:01:02.175Z,4.19
2018-01-12T04:01:42.747Z,4.23
2018-01-12T04:02:23.324Z,4.26
2018-01-12T04:03:03.896Z,4.26
2018-01-12T04:03:44.480Z,4.2
2018-01-12T04:04:25.049Z,4.22
2018-01-12T04:05:05.620Z,4.2
2018-01-12T04:05:46.202Z,4.23
2018-01-12T04:06:26.768Z,4.19
2018-01-12T04:07:07.345Z,4.19
2018-01-12T04:07:47.934Z,4.22
2018-01-12T04:08:28.515Z,4.19
2018-01-12T04:09:09.135Z,4.19
2018-01-12T04:09:49.731Z,4.14
2018-01-12T04:10:30.326Z,4.23
2018-01-12T04:11:10.923Z,4.14
2018-01-12T04:11:51.498Z,4.12
2018-01-12T04:12:32.064Z,4.13
2018-01-12T04:13:12.636Z,4.12
2018-01-12T04:13:53.208Z,4.08
2018-01-12T04:14:33.764Z,4.17
2018-01-12T04:15:14.332Z,4.12
2018-01-12T04:15:54.905Z,4.12
2018-01-12T04:16:35.496Z,4.12
2018-01-12T04:17:16.068Z,4.17
2018-01-12T04:17:56.639Z,4.22
2018-01-12T04:18:37.202Z,4.16
2018-01-12T04:19:17.771Z,4.06
2018-01-12T04:19:58.333Z,4.2
2018-01-12T04:20:38.907Z,4.16
2018-01-12T04:21:19.482Z,4.06
2018-01-12T04:22:00.060Z,4.06
2018-01-12T04:22:40.642Z,4.12
2018-01-12T04:23:21.199Z,4.1
2018-01-12T04:24:01.763Z,4.13
2018-01-12T04:24:42.346Z,4.13
2018-01-12T04:25:22.912Z,4.06
2018-01-12T04:26:03.481Z,4.17
2018-01-12T04:26:44.059Z,4.06
2018-01-12T04:27:24.616Z,4.06
2018-01-12T04:28:05.182Z,4.05
2018-01-12T04:28:45.745Z,4.1
2018-01-12T04:29:26.300Z,4.14
2018-01-12T04:30:06.872Z,4.16
2018-01-12T04:30:47.451Z,4.17
2018-01-12T04:31:28.041Z,4.19
2018-01-12T04:32:08.629Z,4.19
2018-01-12T04:32:49.221Z,4.24
2018-01-12T04:33:29.787Z,4.14
2018-01-12T04:34:10.345Z,4.23
2018-01-12T04:34:50.917Z,4.16
2018-01-12T04:35:31.481Z,4.19
2018-01-12T04:36:12.030Z,4.05
2018-01-12T04:36:52.601Z,4.04
2018-01-12T04:37:33.165Z,4.13
2018-01-12T04:38:13.728Z,4.16
2018-01-12T04:38:54.304Z,4.12
2018-01-12T04:39:34.868Z,4.06
2018-01-12T04:40:15.435Z,4.14
2018-01-12T04:40:55.999Z,4.08
2018-01-12T04:41:36.558Z,4.06
2018-01-12T04:42:17.122Z,4.08
2018-01-12T04:42:57.687Z,4.01
2018-01-12T04:43:38.254Z,3.99
2018-01-12T04:44:18.810Z,4.08
2018-01-12T04:44:59.401Z,4.1
2018-01-12T04:45:39.954Z,4.08
2018-01-12T04:46:20.525Z,3.96
2018-01-12T04:47:01.098Z,4.01
2018-01-12T04:47:41.653Z,3.99
2018-01-12T04:48:22.208Z,4.02
2018-01-12T04:49:02.767Z,4.05
2018-01-12T04:49:43.314Z,4.06
2018-01-12T04:50:23.870Z,4.04
2018-01-12T04:51:04.465Z,4.05
2018-01-12T04:51:45.038Z,4.1
2018-01-12T04:52:25.592Z,3.98
2018-01-12T04:53:06.155Z,4.01
2018-01-12T04:53:46.741Z,4.02
2018-01-12T04:54:27.311Z,4.06
2018-01-12T04:55:07.864Z,4.08
2018-01-12T04:55:48.428Z,4.04
2018-01-12T04:56:29.016Z,4.05
2018-01-12T04:57:09.595Z,4.08
2018-01-12T04:57:50.157Z,3.96
2018-01-12T04:58:30.724Z,4.04
2018-01-12T04:59:11.301Z,4.04
2018-01-12T04:59:51.871Z,3.99
2018-01-12T05:00:32.445Z,3.99
2018-01-12T05:01:13.015Z,3.95
2018-01-12T05:01:53.607Z,3.92
2018-01-12T05:02:34.167Z,3.99
2018-01-12T05:03:14.784Z,3.96
2018-01-12T05:03:55.347Z,3.99
2018-01-12T05:04:35.915Z,3.86
2018-01-12T05:05:16.478Z,3.91
2018-01-12T05:05:57.049Z,3.94
2018-01-12T05:06:37.643Z,3.91
2018-01-12T05:07:18.216Z,3.95
2018-01-12T05:07:58.780Z,3.94
2018-01-12T05:08:39.394Z,3.98
2018-01-12T05:09:19.958Z,3.91
2018-01-12T05:10:00.517Z,3.96
2018-01-12T05:10:41.084Z,4.04
2018-01-12T05:11:21.651Z,4.01
2018-01-12T05:12:02.286Z,3.92
2018-01-12T05:12:43.090Z,3.94
2018-01-12T05:13:23.656Z,4.02
2018-01-12T05:14:04.286Z,3.95
2018-01-12T05:14:46.353Z,3.94
2018-01-12T05:15:26.934Z,3.95
2018-01-12T05:16:07.667Z,3.96
2018-01-12T05:16:48.415Z,3.96
2018-01-12T05:17:29.041Z,3.88
2018-01-12T05:18:09.664Z,3.95
2018-01-12T05:18:50.244Z,3.96
2018-01-12T05:19:30.838Z,3.86
2018-01-12T05:20:11.417Z,3.92
2018-01-12T05:20:51.979Z,3.92
2018-01-12T05:21:32.540Z,4.01
2018-01-12T05:22:13.205Z,3.96
2018-01-12T05:22:53.752Z,4.02
2018-01-12T05:23:34.333Z,3.98
2018-01-12T05:24:14.911Z,3.99
2018-01-12T05:24:55.491Z,3.98
2018-01-12T05:25:36.060Z,4.05
2018-01-12T05:26:16.628Z,3.96
2018-01-12T05:26:57.197Z,4.04
2018-01-12T05:27:37.773Z,4.01
2018-01-12T05:28:18.332Z,4.06
2018-01-12T05:28:58.909Z,4.04
2018-01-12T05:29:39.477Z,4.02
2018-01-12T05:30:20.035Z,3.98
2018-01-12T05:31:00.644Z,4.02
2018-01-12T05:31:41.216Z,4.02
2018-01-12T05:32:21.780Z,4.08
2018-01-12T05:33:02.346Z,4.04
2018-01-12T05:33:42.910Z,4.05
2018-01-12T05:34:23.486Z,4.02
2018-01-12T05:35:04.105Z,4.1
2018-01-12T05:35:44.686Z,4.05
2018-01-12T05:36:25.256Z,4.01
2018-01-12T05:37:05.848Z,4.01
2018-01-12T05:37:46.427Z,3.96
2018-01-12T05:38:26.985Z,4.05
2018-01-12T05:39:07.579Z,3.99
2018-01-12T05:39:48.143Z,3.95
2018-01-12T05:40:28.713Z,3.99
2018-01-12T05:41:09.286Z,3.87
2018-01-12T05:41:49.878Z,3.83
2018-01-12T05:42:30.473Z,3.91
2018-01-12T05:43:11.039Z,3.94
2018-01-12T05:43:51.609Z,3.84
2018-01-12T05:44:32.165Z,3.86
2018-01-12T05:45:12.731Z,3.86
2018-01-12T05:45:53.345Z,3.88
2018-01-12T05:46:33.930Z,3.86
2018-01-12T05:47:14.504Z,3.86
2018-01-12T05:47:55.082Z,3.96
2018-01-12T05:48:35.646Z,3.99
2018-01-12T05:49:16.205Z,3.91
2018-01-12T05:49:56.797Z,3.88
2018-01-12T05:50:37.361Z,3.83
2018-01-12T05:51:17.939Z,3.91
2018-01-12T05:51:58.492Z,3.96
2018-01-12T05:52:39.096Z,4.02
2018-01-12T05:53:19.708Z,3.91
2018-01-12T05:54:00.271Z,3.87
2018-01-12T05:54:40.856Z,3.99
2018-01-12T05:55:21.415Z,3.98
2018-01-12T05:56:01.976Z,3.88
2018-01-12T05:56:42.565Z,3.92
2018-01-12T05:57:23.145Z,3.96
2018-01-12T05:58:03.726Z,3.84
2018-01-12T05:58:44.344Z,3.88
2018-01-12T05:59:24.948Z,3.86
2018-01-12T06:00:05.485Z,3.87
2018-01-12T06:00:46.081Z,3.84
2018-01-12T06:01:26.644Z,3.86
2018-01-12T06:02:07.204Z,3.78
2018-01-12T06:02:47.786Z,3.83
2018-01-12T06:03:28.414Z,3.81
2018-01-12T06:04:09.031Z,3.83
2018-01-12T06:04:49.609Z,3.81
2018-01-12T06:05:30.171Z,3.83
2018-01-12T06:06:10.725Z,3.83
2018-01-12T06:06:51.281Z,3.76
2018-01-12T06:07:31.834Z,3.78
2018-01-12T06:08:12.398Z,3.78
2018-01-12T06:08:52.961Z,3.74
2018-01-12T06:09:33.531Z,3.78
2018-01-12T06:10:14.084Z,3.78
2018-01-12T06:10:54.673Z,3.8
2018-01-12T06:11:35.260Z,3.74
2018-01-12T06:12:15.823Z,3.8
2018-01-12T06:12:56.399Z,3.73
2018-01-12T06:13:37.055Z,3.83
2018-01-12T06:14:17.552Z,3.74
2018-01-12T06:14:58.131Z,3.8
2018-01-12T06:15:38.727Z,3.73
2018-01-12T06:16:19.316Z,3.68
2018-01-12T06:16:59.928Z,3.63
2018-01-12T06:17:40.439Z,3.73
2018-01-12T06:18:20.999Z,3.68
2018-01-12T06:19:01.586Z,3.66
2018-01-12T06:19:42.155Z,3.66
2018-01-12T06:20:22.742Z,3.69
2018-01-12T06:21:03.301Z,3.7
2018-01-12T06:21:43.867Z,3.69
2018-01-12T06:22:24.645Z,3.78
2018-01-12T06:23:05.398Z,3.76
2018-01-12T06:23:45.999Z,3.7
2018-01-12T06:24:26.577Z,3.78
2018-01-12T06:25:07.165Z,3.74
2018-01-12T06:25:47.855Z,3.78
2018-01-12T06:26:28.423Z,3.76
2018-01-12T06:27:09.000Z,3.78
2018-01-12T06:27:49.597Z,3.87
2018-01-12T06:28:30.162Z,3.98
2018-01-12T06:29:10.753Z,4.06
2018-01-12T06:29:51.324Z,4.24
2018-01-12T06:30:31.897Z,4.42
2018-01-12T06:31:12.467Z,4.77
2018-01-12T06:31:53.056Z,4.8
2018-01-12T06:32:33.653Z,5.25
2018-01-12T06:33:14.219Z,5.35
2018-01-12T06:33:54.796Z,5.64
2018-01-12T06:34:35.388Z,5.79
2018-01-12T06:35:15.976Z,5.93
2018-01-12T06:35:56.548Z,6.14
2018-01-12T06:36:37.123Z,6.26
2018-01-12T06:37:17.710Z,6.45
2018-01-12T06:37:58.330Z,6.59
2018-01-12T06:38:38.889Z,6.72
2018-01-12T06:39:19.506Z,6.74
2018-01-12T06:40:00.337Z,6.85
2018-01-12T06:40:40.910Z,7.07
2018-01-12T06:41:21.502Z,7.02
2018-01-12T06:42:02.119Z,7.06
2018-01-12T06:42:42.735Z,6.96
2018-01-12T06:43:23.324Z,7
2018-01-12T06:44:03.942Z,6.93
2018-01-12T06:44:44.525Z,6.78
2018-01-12T06:45:25.120Z,6.88
2018-01-12T06:46:05.684Z,6.84
2018-01-12T06:46:46.251Z,6.95
2018-01-12T06:47:26.827Z,6.97
2018-01-12T06:48:07.388Z,6.95
2018-01-12T06:48:47.951Z,7
2018-01-12T06:49:28.511Z,7.11
2018-01-12T06:50:09.084Z,7.11
2018-01-12T06:50:49.652Z,7.15
2018-01-12T06:51:30.214Z,7.14
2018-01-12T06:52:10.769Z,7.14
2018-01-12T06:52:51.327Z,7.05
2018-01-12T06:53:31.940Z,7.1
2018-01-12T06:54:12.584Z,7.17
2018-01-12T06:54:53.089Z,7.23
2018-01-12T06:55:33.653Z,7.32
2018-01-12T06:56:14.220Z,7.32
2018-01-12T06:56:54.787Z,7.45
2018-01-12T06:57:35.391Z,7.33
2018-01-12T06:58:15.955Z,7.15
2018-01-12T06:58:56.523Z,6.84
2018-01-12T06:59:37.083Z,6.72
2018-01-12T07:00:17.643Z,6.57
2018-01-12T07:00:58.201Z,6.26
2018-01-12T07:01:38.765Z,6.16
2018-01-12T07:02:19.339Z,5.97
2018-01-12T07:02:59.909Z,5.86
2018-01-12T07:03:40.469Z,5.75
2018-01-12T07:04:21.029Z,5.72
2018-01-12T07:05:01.603Z,5.62
2018-01-12T07:05:42.166Z,5.54
2018-01-12T07:06:22.780Z,5.38
2018-01-12T07:07:03.328Z,5.38
2018-01-12T07:07:43.839Z,5.3
2018-01-12T07:08:24.416Z,5.23
2018-01-12T07:09:04.972Z,5.1
2018-01-12T07:09:45.548Z,5.1
2018-01-12T07:10:26.118Z,4.99
2018-01-12T07:11:06.670Z,4.93
2018-01-12T07:11:47.259Z,4.97
2018-01-12T07:12:27.821Z,4.84
2018-01-12T07:13:08.385Z,4.74
2018-01-12T07:13:48.968Z,4.78
2018-01-12T07:14:29.525Z,4.77
2018-01-12T07:15:10.107Z,4.75
2018-01-12T07:15:50.741Z,4.75
2018-01-12T07:16:31.258Z,4.71
2018-01-12T07:17:11.826Z,4.68
2018-01-12T07:17:52.411Z,4.62
2018-01-12T07:18:32.994Z,4.62
2018-01-12T07:19:13.568Z,4.71
2018-01-12T07:19:54.136Z,4.66
2018-01-12T07:20:34.707Z,4.7
2018-01-12T07:21:15.269Z,4.67
2018-01-12T07:21:55.831Z,4.66
2018-01-12T07:22:36.393Z,4.53
2018-01-12T07:23:16.950Z,4.53
2018-01-12T07:23:57.524Z,4.53
2018-01-12T07:24:38.215Z,4.55
2018-01-12T07:25:18.779Z,4.53
2018-01-12T07:25:59.388Z,4.49
2018-01-12T07:26:39.942Z,4.49
2018-01-12T07:27:20.506Z,4.48
2018-01-12T07:28:01.079Z,4.42
2018-01-12T07:28:41.646Z,4.32
2018-01-12T07:29:22.203Z,4.35
2018-01-12T07:30:02.846Z,4.28
2018-01-12T07:30:43.414Z,4.35
2018-01-12T07:31:23.985Z,4.28
2018-01-12T07:32:04.580Z,4.24
2018-01-12T07:32:45.211Z,4.31
2018-01-12T07:33:25.790Z,4.2
2018-01-12T07:34:06.345Z,4.22
2018-01-12T07:34:46.931Z,4.22
2018-01-12T07:35:27.522Z,4.22
2018-01-12T07:36:08.098Z,4.2
2018-01-12T07:36:48.665Z,4.26
2018-01-12T07:37:29.214Z,4.19
2018-01-12T07:38:09.801Z,4.2
2018-01-12T07:38:50.438Z,4.2
2018-01-12T07:39:31.011Z,4.24
2018-01-12T07:40:11.616Z,4.24
2018-01-12T07:40:52.195Z,4.24
2018-01-12T07:41:32.800Z,4.26
2018-01-12T07:42:13.368Z,4.31
2018-01-12T07:42:53.921Z,4.22
2018-01-12T07:43:34.479Z,4.26
2018-01-12T07:44:15.064Z,4.3
2018-01-12T07:44:55.650Z,4.23
2018-01-12T07:45:36.230Z,4.16
2018-01-12T07:46:16.798Z,4.05
2018-01-12T07:46:57.415Z,4.13
2018-01-12T07:47:38.020Z,4.1
2018-01-12T07:48:18.592Z,4.04
2018-01-12T07:48:59.255Z,4.06
2018-01-12T07:49:39.778Z,4.05
2018-01-12T07:50:20.360Z,4.08
2018-01-12T07:51:00.935Z,3.98
2018-01-12T07:51:41.498Z,4.01
2018-01-12T07:52:22.073Z,4.01
2018-01-12T07:53:02.638Z,4.05
2018-01-12T07:53:43.235Z,4.02
2018-01-12T07:54:23.845Z,3.94
2018-01-12T07:55:04.452Z,3.95
2018-01-12T07:55:45.013Z,4.05
2018-01-12T07:56:25.575Z,3.92
2018-01-12T07:57:06.124Z,3.88
2018-01-12T07:57:46.711Z,3.91
2018-01-12T07:58:27.281Z,3.99
2018-01-12T07:59:07.844Z,3.96
2018-01-12T07:59:50.256Z,3.87
2018-01-12T08:00:30.825Z,3.87
2018-01-12T08:01:11.383Z,3.87
2018-01-12T08:01:51.951Z,3.83
2018-01-12T08:02:32.588Z,3.91
2018-01-12T08:03:13.138Z,3.87
2018-01-12T08:03:53.717Z,3.88
2018-01-12T08:04:34.278Z,3.94
2018-01-12T08:05:14.827Z,3.84
2018-01-12T08:05:55.420Z,3.84
2018-01-12T08:06:35.980Z,3.8
2018-01-12T08:07:16.545Z,3.88
2018-01-12T08:07:57.129Z,3.94
2018-01-12T08:08:37.702Z,3.84
2018-01-12T08:09:18.276Z,3.92
2018-01-12T08:09:58.827Z,3.84
2018-01-12T08:10:39.386Z,3.84
2018-01-12T08:11:19.957Z,3.91
2018-01-12T08:12:00.528Z,3.83
2018-01-12T08:12:41.095Z,3.88
2018-01-12T08:13:21.648Z,3.88
2018-01-12T08:14:02.216Z,3.77
2018-01-12T08:14:42.780Z,3.88
2018-01-12T08:15:23.334Z,3.87
2018-01-12T08:16:03.940Z,3.8
2018-01-12T08:16:44.470Z,3.87
2018-01-12T08:17:25.037Z,3.86
2018-01-12T08:18:05.599Z,3.95
2018-01-12T08:18:46.142Z,3.91
2018-01-12T08:19:26.701Z,3.94
2018-01-12T08:20:07.257Z,3.83
2018-01-12T08:20:47.819Z,3.88
2018-01-12T08:21:28.391Z,3.83
2018-01-12T08:22:08.957Z,3.91
2018-01-12T08:22:49.533Z,3.83
2018-01-12T08:23:30.101Z,3.96
2018-01-12T08:24:10.696Z,3.86
2018-01-12T08:24:51.263Z,3.95
2018-01-12T08:25:31.837Z,3.99
2018-01-12T08:26:12.394Z,4.01
2018-01-12T08:26:52.953Z,3.94
2018-01-12T08:27:33.509Z,3.96
2018-01-12T08:28:14.059Z,3.96
2018-01-12T08:28:54.628Z,4.01
2018-01-12T08:29:35.203Z,3.98
2018-01-12T08:30:15.772Z,3.96
2018-01-12T08:30:56.338Z,3.96
2018-01-12T08:31:36.894Z,3.99
2018-01-12T08:32:17.460Z,3.99
2018-01-12T08:32:58.022Z,4.05
2018-01-12T08:33:38.582Z,3.98
2018-01-12T08:34:19.148Z,4.1
2018-01-12T08:34:59.729Z,4.05
2018-01-12T08:35:40.282Z,4.02
2018-01-12T08:36:20.865Z,4.01
2018-01-12T08:37:01.438Z,3.92
2018-01-12T08:37:42.023Z,3.98
2018-01-12T08:38:22.576Z,3.92
2018-01-12T08:39:03.126Z,3.91
2018-01-12T08:39:43.807Z,3.86
2018-01-12T08:40:24.380Z,3.86
2018-01-12T08:41:04.961Z,3.84
2018-01-12T08:41:45.529Z,3.94
2018-01-12T08:42:26.086Z,3.84
2018-01-12T08:43:06.651Z,3.94
2018-01-12T08:43:47.231Z,3.94
2018-01-12T08:44:27.819Z,3.96
2018-01-12T08:45:08.413Z,3.95
2018-01-12T08:45:48.969Z,3.95
2018-01-12T08:46:29.536Z,3.99
2018-01-12T08:47:10.129Z,3.96
2018-01-12T08:47:50.755Z,3.98
2018-01-12T08:48:31.375Z,3.92
2018-01-12T08:49:11.954Z,3.86
2018-01-12T08:49:52.507Z,3.84
2018-01-12T08:50:33.086Z,3.92
2018-01-12T08:51:13.654Z,3.96
2018-01-12T08:51:54.241Z,3.83
2018-01-12T08:52:34.806Z,3.94
2018-01-12T08:53:15.381Z,4.01
2018-01-12T08:53:55.938Z,3.96
2018-01-12T08:54:36.495Z,3.88
2018-01-12T08:55:17.054Z,4.01
2018-01-12T08:55:57.622Z,3.91
2018-01-12T08:56:38.183Z,3.88
2018-01-12T08:57:18.739Z,3.95
2018-01-12T08:57:59.308Z,3.92
2018-01-12T08:58:39.870Z,3.96
2018-01-12T08:59:20.437Z,3.92
2018-01-12T09:00:01.002Z,3.95
2018-01-12T09:00:41.556Z,3.96
2018-01-12T09:01:22.125Z,3.92
2018-01-12T09:02:02.825Z,3.91